createdAt,value
2022-08-05T00:00:48.343Z,3.53
2022-08-05T00:03:15.741Z,3.47
2022-08-05T00:06:04.579Z,4.43
2022-08-05T00:08:34.835Z,3.85
2022-08-05T00:11:00.582Z,3.90
2022-08-05T00:13:39.300Z,3.53
2022-08-05T00:16:06.260Z,3.58
2022-08-05T00:18:32.386Z,4.75
2022-08-05T00:20:56.919Z,4.30
2022-08-05T00:23:44.792Z,3.70
2022-08-05T00:26:04.915Z,4.25
2022-08-05T00:28:29.602Z,4.00
2022-08-05T00:30:53.709Z,4.20
2022-08-05T00:34:54.079Z,3.95
2022-08-05T00:36:16.637Z,3.92
2022-08-05T00:38:46.999Z,4.00
2022-08-05T00:41:11.564Z,3.83
2022-08-05T00:43:46.602Z,4.15
2022-08-05T00:46:11.465Z,3.97
2022-08-05T00:48:51.288Z,3.60
2022-08-05T00:51:51.067Z,3.70
2022-08-05T00:54:03.087Z,4.15
2022-08-05T00:56:27.416Z,4.13
2022-08-05T00:58:51.228Z,4.30
2022-08-05T01:01:42.904Z,4.50
2022-08-05T01:04:02.429Z,4.10
2022-08-05T01:06:35.453Z,4.43
2022-08-05T01:09:01.028Z,4.70
2022-08-05T01:11:37.176Z,4.07
2022-08-05T01:14:08.461Z,4.57
2022-08-05T01:16:40.220Z,5.15
2022-08-05T01:19:46.255Z,4.57
2022-08-05T01:22:24.139Z,5.30
2022-08-05T01:25:13.745Z,4.97
2022-08-05T01:28:18.337Z,6.03
2022-08-05T01:30:53.745Z,5.20
2022-08-05T01:33:25.167Z,4.90
2022-08-05T01:35:53.431Z,5.53
2022-08-05T01:38:27.119Z,5.15
2022-08-05T01:40:54.465Z,5.55
2022-08-05T01:43:22.444Z,4.97
2022-08-05T01:45:54.057Z,5.40
2022-08-05T01:48:21.319Z,6.28
2022-08-05T01:50:51.304Z,5.80
2022-08-05T01:53:37.399Z,5.70
2022-08-05T01:56:04.861Z,6.15
2022-08-05T01:58:40.887Z,5.90
2022-08-05T02:01:15.988Z,5.45
2022-08-05T02:03:50.749Z,5.90
2022-08-05T02:06:33.566Z,5.90
2022-08-05T02:08:59.504Z,5.95
2022-08-05T02:11:33.477Z,5.65
2022-08-05T02:14:06.845Z,6.20
2022-08-05T02:16:44.053Z,6.00
2022-08-05T02:19:14.233Z,6.40
2022-08-05T02:21:49.243Z,6.53
2022-08-05T02:24:23.053Z,6.07
2022-08-05T02:26:53.871Z,7.80
2022-08-05T02:29:26.078Z,7.07
2022-08-05T02:32:11.420Z,6.72
2022-08-05T02:34:37.550Z,6.40
2022-08-05T02:37:07.243Z,6.47
2022-08-05T02:39:36.639Z,7.82
2022-08-05T02:42:07.146Z,7.50
2022-08-05T02:44:37.489Z,6.95
2022-08-05T02:47:01.637Z,7.15
2022-08-05T02:49:27.489Z,7.38
2022-08-05T02:52:04.076Z,8.48
2022-08-05T02:54:36.091Z,7.68
2022-08-05T02:57:03.077Z,7.88
2022-08-05T02:59:30.994Z,8.90
2022-08-05T03:02:13.862Z,8.88
2022-08-05T03:04:39.087Z,8.23
2022-08-05T03:07:02.928Z,8.82
2022-08-05T03:09:37.570Z,9.05
2022-08-05T03:12:08.768Z,8.68
2022-08-05T03:14:32.448Z,8.43
2022-08-05T03:16:56.138Z,8.32
2022-08-05T03:19:34.637Z,8.07
2022-08-05T03:21:59.946Z,8.02
2022-08-05T03:24:30.289Z,7.57
2022-08-05T03:26:54.586Z,8.32
2022-08-05T03:29:18.792Z,8.80
2022-08-05T03:31:56.978Z,9.40
2022-08-05T03:34:25.460Z,8.18
2022-08-05T03:36:50.772Z,8.48
2022-08-05T03:39:20.024Z,8.13
2022-08-05T03:41:50.476Z,8.63
2022-08-05T03:44:19.790Z,8.85
2022-08-05T03:46:43.812Z,9.05
2022-08-05T03:49:09.974Z,8.32
2022-08-05T03:52:48.331Z,8.40
2022-08-05T03:55:53.047Z,10.00
2022-08-05T03:57:29.023Z,8.88
2022-08-05T04:00:10.056Z,10.50
2022-08-05T04:02:52.328Z,9.10
2022-08-05T04:05:23.550Z,10.30
2022-08-05T04:07:57.363Z,9.30
2022-08-05T04:10:22.780Z,9.25
2022-08-05T04:12:46.562Z,10.38
2022-08-05T04:15:15.667Z,11.38
2022-08-05T04:17:56.299Z,10.73
2022-08-05T04:20:23.396Z,10.73
2022-08-05T04:22:48.441Z,11.20
2022-08-05T04:25:12.588Z,12.63
2022-08-05T04:27:43.937Z,14.15
2022-08-05T04:30:21.266Z,13.90
2022-08-05T04:32:45.032Z,14.85
2022-08-05T04:35:17.578Z,15.30
2022-08-05T04:38:02.285Z,14.68
2022-08-05T04:40:28.916Z,16.00
2022-08-05T04:42:53.405Z,17.38
2022-08-05T04:45:31.383Z,17.33
2022-08-05T04:48:06.882Z,20.02
2022-08-05T04:51:02.925Z,18.75
2022-08-05T04:53:23.351Z,19.38
2022-08-05T04:56:14.682Z,20.80
2022-08-05T04:58:32.143Z,19.10
2022-08-05T05:00:56.424Z,19.52
2022-08-05T05:03:20.473Z,19.17
2022-08-05T05:06:36.516Z,17.98
2022-08-05T05:08:30.242Z,18.60
2022-08-05T05:10:56.674Z,18.92
2022-08-05T05:13:20.738Z,18.25
2022-08-05T05:15:57.220Z,17.92
2022-08-05T05:18:31.573Z,17.83
2022-08-05T05:20:57.270Z,17.95
2022-08-05T05:23:22.316Z,18.05
2022-08-05T05:25:46.630Z,18.35
2022-08-05T05:28:13.785Z,18.55
2022-08-05T05:30:37.657Z,16.70
2022-08-05T05:33:13.962Z,17.42
2022-08-05T05:35:42.610Z,16.48
2022-08-05T05:38:09.409Z,13.95
2022-08-05T05:40:37.790Z,13.75
2022-08-05T05:43:08.551Z,15.05
2022-08-05T05:45:34.291Z,15.32
2022-08-05T05:48:07.196Z,13.75
2022-08-05T05:50:32.959Z,13.43
2022-08-05T05:52:57.760Z,12.82
2022-08-05T05:55:23.220Z,11.85
2022-08-05T05:58:06.906Z,11.50
2022-08-05T06:00:34.448Z,10.38
2022-08-05T06:02:59.918Z,10.35
2022-08-05T06:05:24.954Z,9.13
2022-08-05T06:08:01.272Z,10.50
2022-08-05T06:10:29.392Z,10.63
2022-08-05T06:12:58.237Z,10.88
2022-08-05T06:15:23.665Z,10.48
2022-08-05T06:17:52.652Z,10.93
2022-08-05T06:20:21.406Z,9.68
2022-08-05T06:22:45.882Z,9.15
2022-08-05T06:25:24.305Z,8.02
2022-08-05T06:28:10.756Z,8.80
2022-08-05T06:30:33.130Z,8.40
2022-08-05T06:32:58.774Z,7.88
2022-08-05T06:36:03.380Z,7.50
2022-08-05T06:38:11.679Z,7.10
2022-08-05T06:40:35.637Z,6.97
2022-08-05T06:43:05.953Z,6.68
2022-08-05T06:46:06.528Z,6.80
2022-08-05T06:48:55.427Z,7.25
2022-08-05T06:51:23.779Z,6.85
2022-08-05T06:53:53.861Z,6.60
2022-08-05T06:56:26.377Z,7.30
2022-08-05T06:58:51.113Z,6.30
2022-08-05T07:01:14.699Z,7.05
2022-08-05T07:03:45.865Z,6.80
2022-08-05T07:06:14.302Z,6.78
2022-08-05T07:08:39.022Z,7.47
2022-08-05T07:11:06.232Z,7.20
2022-08-05T07:13:59.888Z,6.82
2022-08-05T07:18:00.691Z,6.13
2022-08-05T07:20:05.017Z,6.57
2022-08-05T07:22:09.639Z,6.15
2022-08-05T07:24:35.094Z,6.43
2022-08-05T07:27:08.808Z,5.60
2022-08-05T07:30:27.529Z,4.88
2022-08-05T07:32:16.233Z,4.28
2022-08-05T07:34:42.413Z,3.90
2022-08-05T07:37:06.270Z,4.35
2022-08-05T07:40:04.696Z,4.28
2022-08-05T07:42:19.438Z,3.90
2022-08-05T07:44:57.596Z,4.03
2022-08-05T07:47:25.795Z,4.35
2022-08-05T07:49:54.278Z,4.20
2022-08-05T07:52:18.412Z,3.67
2022-08-05T07:54:49.142Z,3.70
2022-08-05T07:57:41.545Z,4.15
2022-08-05T07:59:56.763Z,4.40
2022-08-05T08:05:03.605Z,3.92
2022-08-05T08:07:28.388Z,3.75
2022-08-05T08:09:55.119Z,4.15
2022-08-05T08:12:37.318Z,3.97
2022-08-05T08:15:03.586Z,4.30
2022-08-05T08:17:28.091Z,4.00
2022-08-05T08:20:43.361Z,3.80
2022-08-05T08:22:39.149Z,4.55
2022-08-05T08:25:16.463Z,4.18
2022-08-05T08:27:47.641Z,3.70
2022-08-05T08:30:29.976Z,4.03
2022-08-05T08:32:57.737Z,3.50
2022-08-05T08:35:21.779Z,3.35
2022-08-05T08:37:53.601Z,3.72
2022-08-05T08:40:22.324Z,3.80
2022-08-05T08:42:52.984Z,3.17
2022-08-05T08:45:26.057Z,3.90
2022-08-05T08:48:10.423Z,3.88
2022-08-05T08:51:22.613Z,3.92
2022-08-05T08:53:28.956Z,3.80
2022-08-05T08:56:03.203Z,3.70
2022-08-05T08:58:43.081Z,3.30
2022-08-05T09:01:11.020Z,3.90
2022-08-05T09:03:44.982Z,6.22
2022-08-05T09:06:12.124Z,4.07
2022-08-05T09:08:42.070Z,3.42
2022-08-05T09:11:12.122Z,3.72
2022-08-05T09:14:09.885Z,3.47
2022-08-05T09:16:22.242Z,3.60
2022-08-05T09:18:50.594Z,3.95
2022-08-05T09:21:20.919Z,3.58
2022-08-05T09:24:10.275Z,3.22
2022-08-05T09:26:34.012Z,3.22
2022-08-05T09:29:05.822Z,3.40
2022-08-05T09:32:51.325Z,3.28
2022-08-05T09:34:17.114Z,3.55
2022-08-05T09:36:45.655Z,3.20
2022-08-05T09:39:22.214Z,2.97
2022-08-05T09:42:01.495Z,3.83
2022-08-05T09:44:40.933Z,3.10
2022-08-05T09:47:15.653Z,3.05
2022-08-05T09:50:01.375Z,3.08
2022-08-05T09:52:29.247Z,2.70
2022-08-05T09:55:55.167Z,2.88
2022-08-05T09:57:47.690Z,2.53
2022-08-05T10:00:14.716Z,2.90
2022-08-05T10:02:40.936Z,2.50
2022-08-05T10:05:15.805Z,2.40
2022-08-05T10:08:10.831Z,2.60
2022-08-05T10:10:53.909Z,2.50
2022-08-05T10:13:44.109Z,2.72
2022-08-05T10:16:32.124Z,2.35
2022-08-05T10:18:58.172Z,3.17
2022-08-05T10:21:22.950Z,3.15
2022-08-05T10:23:55.430Z,3.47
2022-08-05T10:26:31.753Z,2.80
2022-08-05T10:28:56.671Z,3.35
2022-08-05T10:33:01.150Z,3.22
2022-08-05T10:34:07.177Z,3.17
2022-08-05T10:36:32.159Z,2.95
2022-08-05T10:39:10.330Z,2.92
2022-08-05T10:41:47.721Z,3.42
2022-08-05T10:44:14.830Z,3.15
2022-08-05T10:46:50.655Z,3.38
2022-08-05T10:49:18.481Z,3.60
2022-08-05T10:52:00.362Z,3.08
2022-08-05T10:54:29.884Z,3.40
2022-08-05T10:56:58.533Z,3.92
2022-08-05T11:00:03.390Z,3.30
2022-08-05T11:02:38.247Z,3.08
2022-08-05T11:04:59.143Z,3.38
2022-08-05T11:07:32.742Z,2.92
2022-08-05T11:10:27.219Z,3.47
2022-08-05T11:12:54.974Z,3.20
2022-08-05T11:15:22.573Z,3.75
2022-08-05T11:17:59.384Z,3.17
2022-08-05T11:20:39.160Z,3.65
2022-08-05T11:24:05.193Z,3.25
2022-08-05T11:26:28.545Z,3.33
2022-08-05T11:28:58.735Z,3.40
2022-08-05T11:31:56.714Z,2.90
2022-08-05T11:34:21.174Z,4.07
2022-08-05T11:36:52.998Z,3.78
2022-08-05T11:39:19.441Z,3.80
2022-08-05T11:41:57.888Z,3.60
2022-08-05T11:44:52.819Z,3.92
2022-08-05T11:47:21.996Z,3.80
2022-08-05T11:49:49.738Z,3.50
2022-08-05T11:52:16.160Z,3.00
2022-08-05T11:54:55.058Z,2.60
2022-08-05T11:57:25.546Z,2.90
2022-08-05T11:59:52.149Z,2.80
2022-08-05T12:02:30.637Z,3.20
2022-08-05T12:04:59.511Z,3.20
2022-08-05T12:08:09.186Z,3.20
2022-08-05T12:10:11.613Z,3.10
2022-08-05T12:12:35.999Z,3.67
2022-08-05T12:15:01.110Z,3.30
2022-08-05T12:18:02.560Z,3.15
2022-08-05T12:20:25.469Z,3.17
2022-08-05T12:22:51.795Z,3.13
2022-08-05T12:25:16.530Z,2.90
2022-08-05T12:27:53.221Z,2.60
2022-08-05T12:30:19.092Z,2.60
2022-08-05T12:32:50.396Z,2.40
2022-08-05T12:35:16.901Z,2.65
2022-08-05T12:37:48.006Z,2.83
2022-08-05T12:40:26.554Z,3.08
2022-08-05T12:42:52.495Z,2.42
2022-08-05T12:45:18.637Z,2.40
2022-08-05T12:48:01.484Z,2.40
2022-08-05T12:50:31.007Z,2.20
2022-08-05T12:52:59.646Z,2.72
2022-08-05T12:55:26.467Z,2.03
2022-08-05T12:58:39.087Z,2.10
2022-08-05T13:02:01.960Z,2.00
2022-08-05T13:03:27.052Z,1.40
2022-08-05T13:05:56.510Z,1.33
2022-08-05T13:08:20.150Z,1.35
2022-08-05T13:10:50.235Z,1.63
2022-08-05T13:14:05.202Z,1.40
2022-08-05T13:16:00.108Z,1.35
2022-08-05T13:18:24.101Z,1.55
2022-08-05T13:20:49.218Z,1.70
2022-08-05T13:23:13.590Z,1.60
2022-08-05T13:25:52.486Z,1.70
2022-08-05T13:28:22.776Z,1.70
2022-08-05T13:30:46.347Z,1.80
2022-08-05T13:33:14.317Z,1.70
2022-08-05T13:35:57.383Z,1.60
2022-08-05T13:38:30.330Z,1.70
2022-08-05T13:40:55.041Z,1.50
2022-08-05T13:43:21.857Z,1.65
2022-08-05T13:45:45.992Z,1.65
2022-08-05T13:48:58.457Z,1.90
2022-08-05T13:50:56.358Z,2.05
2022-08-05T13:53:20.350Z,2.10
2022-08-05T13:55:49.237Z,1.60
2022-08-05T13:58:30.306Z,1.80
2022-08-05T14:00:54.712Z,1.73
2022-08-05T14:03:19.712Z,1.55
2022-08-05T14:06:04.787Z,1.70
2022-08-05T14:08:27.659Z,1.25
2022-08-05T14:11:03.277Z,1.30
2022-08-05T14:13:39.963Z,1.00
2022-08-05T14:16:07.848Z,1.38
2022-08-05T14:18:35.944Z,1.20
2022-08-05T14:22:06.984Z,1.02
2022-08-05T14:23:45.265Z,0.90
2022-08-05T14:26:08.897Z,1.00
2022-08-05T14:28:52.586Z,0.90
2022-08-05T14:31:17.182Z,1.23
2022-08-05T14:34:01.122Z,1.05
2022-08-05T14:36:25.030Z,1.08
2022-08-05T14:38:50.449Z,0.90
2022-08-05T14:41:14.881Z,1.05
2022-08-05T14:43:58.863Z,0.93
2022-08-05T14:46:27.225Z,1.10
2022-08-05T14:48:52.238Z,0.95
2022-08-05T14:51:17.962Z,1.02
2022-08-05T14:53:44.316Z,1.00
2022-08-05T14:56:09.126Z,0.73
2022-08-05T14:58:35.384Z,0.88
2022-08-05T15:01:00.432Z,0.98
2022-08-05T15:03:25.167Z,0.68
2022-08-05T15:06:07.858Z,0.90
2022-08-05T15:08:58.525Z,0.90
2022-08-05T15:11:17.705Z,0.90
2022-08-05T15:13:45.781Z,0.80
2022-08-05T15:16:10.995Z,0.80
2022-08-05T15:18:36.877Z,0.85
2022-08-05T15:21:07.154Z,0.60
2022-08-05T15:23:31.530Z,0.80
2022-08-05T15:26:02.724Z,0.70
2022-08-05T15:28:29.967Z,0.70
2022-08-05T15:30:53.573Z,0.80
2022-08-05T15:33:56.678Z,0.90
2022-08-05T15:36:03.404Z,0.70
2022-08-05T15:38:35.497Z,0.68
2022-08-05T15:41:23.005Z,0.75
2022-08-05T15:43:47.144Z,0.90
2022-08-05T15:46:11.026Z,0.80
2022-08-05T15:48:34.802Z,1.00
2022-08-05T15:51:03.496Z,0.80
2022-08-05T15:53:38.105Z,0.80
2022-08-05T15:56:05.706Z,0.80
2022-08-05T15:58:36.854Z,0.95
2022-08-05T16:01:18.365Z,0.80
2022-08-05T16:03:42.771Z,0.70
2022-08-05T16:15:09.471Z,0.80
2022-08-05T16:17:33.170Z,0.70
2022-08-05T16:20:04.758Z,0.70
2022-08-05T16:22:33.959Z,0.70
2022-08-05T16:24:57.897Z,0.60
2022-08-05T16:27:32.027Z,0.70
2022-08-05T16:30:23.172Z,0.80
2022-08-05T16:32:47.345Z,0.65
2022-08-05T16:35:11.196Z,0.77
2022-08-05T16:38:02.423Z,0.60
2022-08-05T16:40:28.549Z,0.82
2022-08-05T16:42:52.936Z,0.60
2022-08-05T16:46:03.478Z,0.80
2022-08-05T16:48:02.939Z,0.80
2022-08-05T16:50:26.919Z,0.70
2022-08-05T16:52:50.544Z,1.10
2022-08-05T16:55:14.468Z,0.85
2022-08-05T16:57:53.077Z,0.82
2022-08-05T17:00:25.953Z,0.80
2022-08-05T17:02:58.174Z,0.93
2022-08-05T17:05:22.039Z,0.80
2022-08-05T17:07:54.704Z,0.90
2022-08-05T17:10:18.749Z,0.80
2022-08-05T17:12:51.781Z,0.70
2022-08-05T17:15:19.598Z,0.63
2022-08-05T17:17:45.738Z,0.80
2022-08-05T17:20:18.528Z,0.75
2022-08-05T17:22:42.152Z,0.95
2022-08-05T17:25:22.171Z,0.90
2022-08-05T17:27:51.758Z,0.70
2022-08-05T17:30:19.154Z,0.80
2022-08-05T17:32:53.565Z,0.65
2022-08-05T17:35:20.638Z,0.80
2022-08-05T17:37:48.273Z,0.80
2022-08-05T17:40:15.438Z,0.80
2022-08-05T17:42:43.006Z,0.80
2022-08-05T17:45:20.409Z,0.68
2022-08-05T17:47:48.870Z,0.90
2022-08-05T17:50:22.756Z,1.10
2022-08-05T17:52:54.866Z,0.80
2022-08-05T17:55:18.914Z,1.05
2022-08-05T17:57:50.030Z,0.90
2022-08-05T18:00:15.380Z,1.17
2022-08-05T18:02:38.965Z,1.00
2022-08-05T18:05:07.777Z,1.02
2022-08-05T18:07:41.562Z,0.90
2022-08-05T18:10:09.897Z,0.80
2022-08-05T18:12:34.340Z,0.80
2022-08-05T18:14:58.031Z,1.05
2022-08-05T18:17:58.890Z,0.82
2022-08-05T18:20:14.139Z,0.80
2022-08-05T18:22:53.892Z,0.75
2022-08-05T18:25:22.123Z,0.90
2022-08-05T18:27:51.951Z,0.80
2022-08-05T18:30:16.637Z,1.05
2022-08-05T18:32:40.286Z,1.08
2022-08-05T18:35:17.232Z,1.00
2022-08-05T18:37:42.974Z,0.90
2022-08-05T18:41:49.925Z,1.00
2022-08-05T18:42:52.022Z,0.90
2022-08-05T18:45:15.932Z,1.10
2022-08-05T18:47:39.833Z,0.80
2022-08-05T18:50:22.425Z,0.82
2022-08-05T18:53:15.617Z,0.70
2022-08-05T18:55:43.098Z,0.90
2022-08-05T18:58:07.822Z,0.80
2022-08-05T19:00:40.247Z,1.15
2022-08-05T19:03:05.821Z,0.85
2022-08-05T19:06:11.040Z,0.93
2022-08-05T19:08:15.756Z,0.90
2022-08-05T19:10:43.099Z,0.70
2022-08-05T19:13:06.914Z,0.80
2022-08-05T19:15:58.740Z,0.80
2022-08-05T19:18:22.064Z,0.90
2022-08-05T19:20:48.325Z,1.10
2022-08-05T19:24:04.543Z,0.73
2022-08-05T19:26:02.215Z,0.95
2022-08-05T19:28:26.645Z,0.98
2022-08-05T19:30:51.482Z,0.93
2022-08-05T19:33:16.954Z,1.60
2022-08-05T19:35:56.396Z,1.25
2022-08-05T19:38:26.360Z,1.45
2022-08-05T19:40:50.370Z,1.30
2022-08-05T19:44:04.228Z,1.10
2022-08-05T19:46:01.844Z,1.10
2022-08-05T19:48:25.343Z,1.17
2022-08-05T19:50:49.338Z,0.90
2022-08-05T19:53:15.074Z,1.23
2022-08-05T19:56:15.202Z,1.15
2022-08-05T19:58:29.530Z,0.90
2022-08-05T20:00:53.779Z,1.02
2022-08-05T20:03:17.646Z,1.25
2022-08-05T20:05:50.343Z,0.80
2022-08-05T20:08:15.558Z,1.10
2022-08-05T20:10:39.168Z,1.02
2022-08-05T20:13:06.968Z,1.20
2022-08-05T20:15:51.569Z,0.85
2022-08-05T20:18:33.552Z,1.20
2022-08-05T20:21:00.037Z,1.10
2022-08-05T20:23:40.526Z,1.10
2022-08-05T20:26:08.152Z,1.23
2022-08-05T20:28:39.141Z,1.30
2022-08-05T20:31:05.481Z,1.25
2022-08-05T20:33:29.514Z,1.55
2022-08-05T20:35:57.165Z,1.10
2022-08-05T20:38:27.126Z,1.02
2022-08-05T20:40:52.562Z,1.10
2022-08-05T20:43:57.447Z,0.98
2022-08-05T20:46:06.790Z,0.93
2022-08-05T20:48:30.436Z,1.30
2022-08-05T20:50:54.384Z,1.10
2022-08-05T20:53:36.590Z,1.00
2022-08-05T20:56:08.230Z,1.00
2022-08-05T20:58:32.666Z,1.33
2022-08-05T21:00:56.834Z,1.15
2022-08-05T21:03:22.099Z,1.10
2022-08-05T21:05:53.810Z,1.35
2022-08-05T21:08:18.855Z,1.20
2022-08-05T21:10:48.674Z,1.10
2022-08-05T21:13:14.836Z,1.38
2022-08-05T21:15:44.539Z,1.05
2022-08-05T21:18:14.805Z,1.10
2022-08-05T21:20:40.277Z,1.13
2022-08-05T21:23:07.440Z,1.17
2022-08-05T21:25:34.048Z,1.30
2022-08-05T21:27:57.916Z,1.02
2022-08-05T21:30:21.959Z,1.50
2022-08-05T21:32:47.610Z,1.92
2022-08-05T21:35:18.330Z,2.20
2022-08-05T21:37:55.231Z,1.90
2022-08-05T21:40:18.910Z,1.80
2022-08-05T21:42:44.523Z,1.13
2022-08-05T21:45:10.701Z,1.33
2022-08-05T21:47:56.526Z,1.50
2022-08-05T21:50:19.846Z,1.60
2022-08-05T21:52:47.385Z,1.30
2022-08-05T21:55:12.973Z,1.00
2022-08-05T21:57:42.689Z,1.20
2022-08-05T22:00:11.158Z,1.20
2022-08-05T22:02:38.217Z,1.30
2022-08-05T22:05:01.798Z,1.25
2022-08-05T22:07:54.234Z,1.10
2022-08-05T22:10:13.158Z,1.30
2022-08-05T22:12:40.235Z,1.30
2022-08-05T22:15:16.344Z,1.20
2022-08-05T22:17:56.307Z,1.30
2022-08-05T22:20:23.684Z,1.00
2022-08-05T22:23:16.676Z,1.33
2022-08-05T22:26:09.648Z,1.15
2022-08-05T22:28:35.292Z,1.33
2022-08-05T22:31:05.253Z,1.20
2022-08-05T22:33:57.662Z,1.52
2022-08-05T22:36:15.218Z,1.40
2022-08-05T22:38:39.079Z,1.15
2022-08-05T22:41:09.513Z,1.27
2022-08-05T22:43:36.270Z,1.05
2022-08-05T22:46:03.506Z,1.20
2022-08-05T22:48:32.751Z,1.40
2022-08-05T22:50:56.430Z,1.17
2022-08-05T22:53:20.420Z,1.20
2022-08-05T22:55:56.964Z,1.40
2022-08-05T22:58:28.325Z,1.45
2022-08-05T23:00:52.337Z,1.23
2022-08-05T23:03:20.792Z,1.55
2022-08-05T23:06:04.507Z,1.40
2022-08-05T23:08:30.395Z,1.20
2022-08-05T23:10:55.005Z,1.13
2022-08-05T23:13:21.210Z,1.33
2022-08-05T23:15:44.918Z,1.30
2022-08-05T23:18:15.917Z,1.60
2022-08-05T23:20:40.052Z,1.17
2022-08-05T23:23:08.623Z,1.10
2022-08-05T23:25:51.778Z,1.15
2022-08-05T23:28:17.382Z,1.40
2022-08-05T23:30:43.782Z,1.10
2022-08-05T23:33:16.172Z,1.20
2022-08-05T23:35:49.332Z,1.20
2022-08-05T23:38:13.209Z,1.25
2022-08-05T23:40:37.934Z,1.27
2022-08-05T23:43:02.086Z,1.23
2022-08-05T23:45:47.026Z,1.10
2022-08-05T23:48:12.111Z,1.38
2022-08-05T23:50:35.789Z,1.20
2022-08-05T23:52:58.346Z,1.30
2022-08-05T23:55:22.431Z,1.25
2022-08-05T23:57:48.832Z,1.50
